Weather observations for the past three days for
Baraboo Wisconsin Dells Airport
Imperial (Metric)
Date Time (cdt) Wind (mph) Vis. (mi.) Weather Sky Cond. Temperature (ºF) Relative Humidity Wind Chill (°F) Heat Index (°F) Pressure Precipitation (in)
Air Dwpt 6 hour altimeter (in) sea level (mb) 1 hr 3 hr 6 hr
Max. Min.
05 15:55 NW 10 G 20 10.00 Fair CLR 54.5 22.1 28% 29.8 0.0
05 15:35 NW 13 G 25 10.00 Fair CLR 54.1 21 27% 29.8 0.0
05 15:15 NW 14 G 21 10.00 Fair CLR 54.1 21.7 28% 29.8 0.0
05 14:55 W 13 G 24 10.00 Fair CLR 53.8 21.7 29% 29.8 0.0
05 14:35 NW 13 G 21 10.00 Fair CLR 53.8 21 28% 29.8 0.0
05 14:15 W 17 G 21 10.00 Partly Cloudy SCT070 54.5 20.5 26% 29.81 0.0
05 13:55 W 15 G 22 10.00 Mostly Cloudy BKN070 53.4 21.9 29% 29.8 0.0
05 13:35 W 16 G 24 10.00 Mostly Cloudy BKN070 53.8 22.6 30% 29.8 0.0
05 13:15 W 15 G 22 10.00 Partly Cloudy SCT070 52.7 20.7 28% 29.8 0.0
05 12:55 W 15 G 23 10.00 Partly Cloudy SCT070 51.8 20.8 52.7 42.3 30% 29.8 0.0
05 12:35 NW 14 G 20 10.00 Fair CLR 51.8 19.9 29% 29.8 0.0
05 12:15 W 14 G 22 10.00 Fair CLR 51.8 21 30% 29.8 0.0
05 11:55 NW 17 G 22 10.00 Fair CLR 51.1 19.8 29% 29.8 0.0
05 11:30 NW 9 G 22 10.00 Partly Cloudy SCT070 50.7 20.5 30% 29.8 0.0
05 11:15 W 14 G 25 10.00 Partly Cloudy SCT070 50.7 20.7 31% 29.8 0.0
05 10:55 W 14 G 24 10.00 Fair CLR 50 21.4 32% 45 29.79 0.0
05 10:15 W 17 G 23 10.00 Partly Cloudy SCT060 48.6 21.4 34% 43 29.78 0.0
05 09:55 W 8 G 20 10.00 Fair CLR 48.7 23.9 38% 46 29.79 0.0
05 09:35 W 12 G 17 10.00 Fair CLR 47.8 25.3 41% 43 29.79 0.0
05 09:15 W 12 G 17 10.00 Fair CLR 46.6 25.9 44% 42 29.79 0.0
05 08:55 W 13 G 17 10.00 Fair CLR 46.8 27 46% 42 29.79 0.0
05 08:35 W 12 G 18 10.00 Fair CLR 45.7 26.6 47% 41 29.8 0.0
05 08:15 NW 7 10.00 Fair CLR 44.8 26.6 49% 41 29.8 0.0
05 07:55 W 10 10.00 Fair CLR 44.1 26.2 50% 39 29.79 0.0
05 07:35 W 9 10.00 Fair CLR 44.2 26.6 50% 40 29.79 0.0
05 07:15 W 7 10.00 Fair CLR 43.7 27.3 53% 40 29.78 0.0
05 06:55 W 6 10.00 Fair CLR 42.3 27 49.1 40.3 55% 39 29.76 0.0
05 06:35 W 5 10.00 Fair CLR 41.2 26.4 56% 39 29.74 0.0
05 06:15 W 3 10.00 Fair CLR 40.5 25.9 56% 29.73 0.0
05 05:55 W 5 10.00 Fair CLR 40.3 25.7 56% 38 29.74 0.0
05 05:35 W 6 10.00 Fair CLR 41.2 25.7 54% 38 29.74 0.0
05 05:15 W 3 10.00 Fair CLR 41 25.9 55% 29.73 0.0
05 04:55 SW 3 10.00 Fair CLR 41.7 26.2 54% 29.72 0.0
05 04:35 W 3 10.00 Fair CLR 42.1 26.8 55% 29.72 0.0
05 04:15 SW 3 10.00 Fair CLR 42.1 27.3 56% 29.72 0.0
05 03:55 W 5 10.00 Fair CLR 42.8 27.1 54% 41 29.71 0.0
05 03:35 W 5 10.00 Fair CLR 43.7 26.8 51% 42 29.7 0.0
05 03:15 W 6 10.00 Fair CLR 43.9 26.8 51% 41 29.69 0.0
05 02:55 W 6 10.00 Fair CLR 44.4 26.6 50% 42 29.69 0.0
05 02:35 NW 8 10.00 Fair CLR 45.5 26.6 48% 42 29.68 0.0
05 02:15 NW 6 10.00 Fair CLR 46 26.1 46% 44 29.67 0.0
05 01:55 NW 9 G 16 10.00 Fair CLR 46.8 25.5 43% 43 29.67 0.0
05 01:35 NW 8 10.00 Fair CLR 47.5 26.2 44% 44 29.67 0.0
05 01:15 NW 13 G 21 10.00 Fair CLR 48.6 25.9 41% 44 29.67 0.0
05 00:35 NW 13 G 21 10.00 Fair CLR 49.8 25.9 39% 45 29.66 0.0
05 00:15 NW 12 G 22 10.00 Fair CLR 50.2 27.3 41% 29.65 0.0
04 23:55 NW 8 G 17 10.00 Fair CLR 50.9 28.4 42% 29.64 0.0
04 23:15 NW 12 G 23 10.00 Fair CLR 52.7 30.2 42% 29.62 0.0
04 22:55 NW 10 G 20 10.00 Fair CLR 53.6 31.6 43% 29.61 0.0
04 22:35 NW 14 G 20 10.00 Fair CLR 54.5 31.5 42% 29.6 0.0
04 22:15 W 10 G 17 10.00 Fair CLR 55.6 30.9 39% 29.59 0.0
04 21:55 W 12 G 16 10.00 Fair CLR 55.8 31.1 39% 29.57 0.0
04 21:35 W 9 10.00 Fair CLR 56.1 30.9 38% 29.56 0.0
04 21:15 W 12 G 21 10.00 Fair CLR 57 30.2 36% 29.54 0.0
04 20:55 W 12 G 20 10.00 Partly Cloudy SCT110 58.5 28 31% 29.53 0.0
04 20:35 NW 14 G 23 10.00 Partly Cloudy SCT110 59.4 26.4 28% 29.52 0.0
04 20:15 W 17 G 24 10.00 Mostly Cloudy SCT095 BKN120 60.6 25.7 26% 29.51 0.0
04 19:55 W 14 G 21 10.00 Partly Cloudy SCT120 61.2 27.5 28% 29.51 0.0
04 19:30 W 16 G 23 10.00 Partly Cloudy SCT120 61.9 30.7 31% 29.5 0.0
04 19:15 W 13 G 16 10.00 Partly Cloudy SCT120 62.6 32 32% 29.5 0.0
04 18:55 W 15 G 29 10.00 Overcast OVC120 63.7 31.5 77.5 63.7 30% 29.49 0.0
04 18:35 W 16 G 30 10.00 Mostly Cloudy BKN120 65.1 30.9 28% 29.48 0.0
04 18:15 W 14 G 23 10.00 Partly Cloudy SCT120 66.4 32 28% 29.47 0.0
04 17:55 NW 17 G 25 10.00 Fair CLR 69.1 34.7 28% 29.46 0.0
04 17:35 W 20 G 25 10.00 Fair CLR 71.8 36.3 27% 29.45 0.0
04 17:15 W 17 G 23 10.00 Fair CLR 72.7 37.4 28% 29.44 0.0
04 16:55 W 21 G 28 10.00 Fair and Breezy CLR 72.1 38.1 29% 29.44 0.0
04 16:35 NW 16 G 28 10.00 Fair CLR 72.5 37.9 29% 29.43 0.0
04 16:15 NW 16 G 25 10.00 Partly Cloudy SCT095 74.5 41.5 31% 29.42 0.0
04 15:55 W 25 G 33 10.00 Partly Cloudy and Breezy SCT095 77 40.8 27% 77 29.41 0.0
04 15:35 W 15 G 26 10.00 Partly Cloudy SCT095 77 41.5 28% 78 29.41 0.0
04 14:55 W 17 G 29 10.00 Mostly Cloudy BKN095 BKN120 75.2 39.9 28% 77 29.42 0.0
04 14:35 W 21 G 31 10.00 Mostly Cloudy and Breezy BKN095 BKN110 76.1 40.3 28% 77 29.42 0.0
04 14:15 W 18 G 24 10.00 Partly Cloudy SCT095 77.4 41.4 28% 78 29.42 0.0
04 13:55 SW 21 G 29 10.00 Mostly Cloudy and Breezy BKN095 75.7 40.1 28% 77 29.42 0.0
04 13:35 SW 22 G 31 10.00 Mostly Cloudy and Breezy BKN095 75.7 40.5 28% 77 29.43 0.0
04 13:15 SW 20 G 30 10.00 Partly Cloudy SCT085 SCT110 77.2 41.4 28% 78 29.43 0.0
04 12:55 W 17 G 30 10.00 Partly Cloudy SCT085 76.8 40.8 77.2 54.7 28% 77 29.43 0.0
04 12:35 SW 17 G 24 10.00 Mostly Cloudy BKN085 75.2 39.9 28% 77 29.43 0.0
04 12:15 SW 21 G 29 10.00 Partly Cloudy and Breezy SCT085 75.9 39.7 27% 77 29.44 0.0
04 11:55 SW 16 G 28 10.00 Fair CLR 74.8 39.4 28% 29.45 0.0
04 11:35 SW 21 G 29 10.00 Partly Cloudy and Breezy SCT100 73.6 38.3 28% 29.45 0.0
04 11:15 SW 21 G 31 10.00 Fair and Breezy CLR 73.4 38.1 28% 29.45 0.0
04 10:55 SW 21 G 29 10.00 Fair and Breezy CLR 72.5 37.6 28% 29.46 0.0
04 10:35 SW 22 G 29 10.00 Fair and Breezy CLR 71.2 37 29% 29.46 0.0
04 10:15 SW 17 G 28 10.00 Fair CLR 70 37.4 30% 29.47 0.0
04 09:55 SW 15 G 23 10.00 Fair CLR 69.3 38.1 32% 29.48 0.0
04 09:35 SW 18 G 24 10.00 Fair CLR 66.7 37.2 34% 29.49 0.0
04 09:15 SW 15 G 21 10.00 Fair CLR 64.6 37.2 36% 29.5 0.0
04 08:55 SW 16 G 26 10.00 Fair CLR 63 36.3 37% 29.51 0.0
04 08:35 SW 20 G 25 10.00 Fair CLR 61.7 35.8 38% 29.51 0.0
04 08:15 SW 14 10.00 Fair CLR 60.4 36.3 41% 29.52 0.0
04 07:55 SW 15 G 20 10.00 Fair CLR 59.2 35.4 41% 29.52 0.0
04 07:35 SW 14 10.00 Fair CLR 57.4 34.7 43% 29.52 0.0
04 07:15 SW 15 10.00 Fair CLR 56.1 34.5 44% 29.53 0.0
04 06:55 SW 13 10.00 Fair CLR 54.7 34.3 54.7 43.9 46% 29.54 0.0
04 06:35 SW 10 10.00 Fair CLR 53.6 34.5 49% 29.54 0.0
04 06:15 SW 10 10.00 Fair CLR 52.3 34.2 50% 29.54 0.0
04 05:55 SW 12 10.00 Fair CLR 52 34.2 51% 29.54 0.0
04 05:35 SW 9 10.00 Fair CLR 51.8 34.3 52% 29.55 0.0
04 05:15 SW 9 10.00 Fair CLR 48.4 35.1 60% 45 29.55 0.0
04 04:55 SW 6 10.00 Fair CLR 49.3 34.9 58% 47 29.56 0.0
04 04:35 SW 3 10.00 Fair CLR 45.1 35.1 68% 29.57 0.0
04 04:15 Calm 10.00 Fair CLR 46.6 35.1 64% 29.57 0.0
04 03:55 SW 3 10.00 Fair CLR 46.8 34.9 63% 29.58 0.0
04 03:35 Calm 10.00 Fair CLR 46.6 35.6 66% 29.58 0.0
04 03:15 SW 3 10.00 Fair CLR 46 35.8 68% 29.59 0.0
04 02:55 Calm 10.00 Fair CLR 47.1 35.1 63% 29.6 0.0
04 02:35 Calm 10.00 Fair CLR 49.1 34.9 58% 29.61 0.0
04 02:15 Calm 10.00 Fair CLR 51.3 34.9 54% 29.61 0.0
04 01:55 SW 3 10.00 Fair CLR 51.6 35.1 53% 29.62 0.0
04 01:35 SW 3 10.00 Fair CLR 50 35.6 58% 29.63 0.0
04 01:15 SW 5 10.00 Fair CLR 51.1 35.1 54% 29.64 0.0
04 00:55 SW 3 10.00 Fair CLR 51.8 35.1 69.3 51.6 53% 29.64 0.0
04 00:35 SW 3 10.00 Fair CLR 54.9 34.7 47% 29.65 0.0
04 00:15 SW 3 10.00 Fair CLR 53.2 34.9 50% 29.65 0.0
03 23:55 SW 5 10.00 Fair CLR 53.6 34.7 49% 29.65 0.0
03 23:35 SW 3 10.00 Fair CLR 56.1 34.2 44% 29.65 0.0
03 23:15 SW 3 10.00 Fair CLR 55 35.1 47% 29.65 0.0
03 22:55 SW 3 10.00 Fair CLR 51.8 35.8 55% 29.67 0.0
03 22:35 W 3 10.00 Fair CLR 58.3 34 40% 29.67 0.0
03 22:15 W 3 10.00 Fair CLR 59.9 34 38% 29.67 0.0
03 21:55 W 3 10.00 Fair CLR 61 34.3 37% 29.67 0.0
03 21:35 W 3 10.00 Fair CLR 61.2 34.7 37% 29.67 0.0
03 21:15 W 3 10.00 Fair CLR 61.9 34.7 36% 29.67 0.0
03 20:55 W 5 10.00 Fair CLR 62.1 34.7 36% 29.65 0.0
03 20:35 W 3 10.00 Fair CLR 63 34 34% 29.65 0.0
03 20:15 W 5 10.00 Fair CLR 64.2 33.8 32% 29.65 0.0
03 19:55 W 7 10.00 Fair CLR 66.4 33.1 29% 29.64 0.0
03 19:35 W 9 10.00 Fair CLR 67.3 34.5 30% 29.64 0.0
03 19:15 W 8 10.00 Fair CLR 68.9 34.7 28% 29.64 0.0
03 18:55 W 10 10.00 Fair CLR 69.4 36.3 70.9 64 30% 29.63 0.0
03 18:35 NW 9 10.00 Fair CLR 69.8 36.7 30% 29.63 0.0
03 18:15 W 9 10.00 Fair CLR 70.2 37 30% 29.63 0.0
03 17:55 W 10 G 17 10.00 Fair CLR 70.3 36.1 29% 29.63 0.0
03 17:35 W 14 G 20 10.00 Fair CLR 70.7 37 29% 29.63 0.0
03 17:15 NW 9 10.00 Partly Cloudy SCT075 69.8 37.9 31% 29.64 0.0
03 16:55 SW 13 G 17 10.00 Partly Cloudy SCT075 70.2 39.2 32% 29.64 0.0
03 16:35 W 12 G 20 10.00 Fair CLR 69.4 39.4 34% 29.64 0.0
03 16:15 W 9 G 28 10.00 Fair CLR 69.6 40.3 34% 29.64 0.0
03 15:55 SW 13 10.00 Fair CLR 68.5 40.5 36% 29.65 0.0
03 15:35 SW 14 G 20 10.00 Fair CLR 68.4 39.7 35% 29.65 0.0
03 15:15 W 9 10.00 Fair CLR 67.8 39.9 36% 29.66 0.0
03 14:55 SW 15 10.00 Fair CLR 67.3 39.7 37% 29.67 0.0
03 14:35 W 14 G 21 10.00 Fair CLR 66 39.4 38% 29.68 0.0
03 14:15 SW 12 G 21 10.00 Fair CLR 65.8 39.4 38% 29.68 0.0
03 13:55 SW 13 G 23 10.00 Fair CLR 64.4 38.3 38% 29.69 0.0
03 13:35 SW 15 G 22 10.00 Fair CLR 65.1 38.8 38% 29.69 0.0
03 13:15 SW 14 G 20 10.00 Fair CLR 64.4 38.3 38% 29.7 0.0
03 12:55 SW 12 G 21 10.00 Fair CLR 64.4 38.8 64.4 51.8 39% 29.7 0.0
03 12:35 SW 14 10.00 Fair CLR 63.5 38.5 40% 29.71 0.0
03 12:15 SW 18 G 23 10.00 Fair CLR 62.6 38.3 41% 29.72 0.0
03 11:55 SW 18 G 24 10.00 Fair CLR 61.3 37.4 41% 29.72 0.0
03 11:35 SW 16 G 25 10.00 Fair CLR 62.1 37.8 41% 29.72 0.0
03 11:15 SW 20 G 28 10.00 Fair CLR 61.2 37.8 42% 29.73 0.0
03 10:55 SW 18 G 28 10.00 Fair CLR 60.8 38.5 44% 29.74 0.0
03 10:35 S 21 G 30 10.00 Fair and Breezy CLR 59.9 38.5 45% 29.74 0.0
03 10:15 S 22 G 26 10.00 Fair and Breezy CLR 59.4 39 47% 29.75 0.0
03 09:55 SW 17 G 24 10.00 Partly Cloudy SCT120 59.5 38.3 45% 29.76 0.0
03 09:35 SW 23 G 28 10.00 Partly Cloudy and Breezy SCT085 59 38.5 47% 29.77 0.0
03 09:15 S 15 G 23 10.00 Mostly Cloudy BKN085 57.7 39.4 51% 29.77 0.0
03 08:55 S 16 G 23 10.00 Mostly Cloudy BKN095 56.3 39.6 54% 29.78 0.0
03 08:35 S 16 G 28 10.00 Mostly Cloudy BKN095 55.9 38.3 52% 29.78 0.0
03 08:15 S 18 G 29 10.00 Partly Cloudy SCT095 54.9 37.8 53% 29.78 0.0
03 07:55 SW 21 G 26 10.00 Partly Cloudy and Breezy SCT095 52.9 37.6 56% 29.79 0.0
03 07:35 SW 17 G 24 10.00 Overcast OVC095 52.9 36.9 55% 29.79 0.0
03 07:15 SW 17 G 23 10.00 Overcast SCT095 OVC120 52.9 36.5 54% 29.8 0.0
03 06:55 SW 15 G 22 10.00 Overcast SCT085 OVC120 51.8 35.1 51.8 50 53% 29.8 0.0
03 06:35 SW 13 G 21 10.00 Light Drizzle SCT050 BKN070 OVC095 51.1 34.3 53% 29.81 0.0
03 06:15 SW 9 10.00 Overcast SCT055 BKN070 OVC080 50.2 32.4 51% 29.81 0.0
03 05:55 SW 9 10.00 Overcast SCT080 OVC090 50 31.8 50% 47 29.81 0.0
03 05:35 SW 12 10.00 Overcast OVC090 50.5 31.1 47% 29.82 0.0
03 05:15 SW 15 G 20 10.00 Overcast OVC090 50.5 30.9 47% 29.81 0.0
03 04:35 SW 9 10.00 Overcast OVC100 50.4 30.6 47% 29.82 0.0
03 04:15 SW 9 G 16 10.00 Overcast OVC100 50.5 30.2 46% 29.84 0.0
03 03:55 SW 13 G 18 10.00 Overcast OVC100 50.9 30 45% 29.84 0.0
03 03:35 SW 12 G 18 10.00 Overcast BKN100 OVC120 51.1 29.7 44% 29.84 0.0
03 03:15 SW 10 G 17 10.00 Overcast OVC120 51.1 29.5 44% 29.84 0.0
03 02:55 SW 12 G 17 10.00 Overcast OVC110 50.9 29.1 43% 29.85 0.0
03 02:35 SW 12 G 17 10.00 Overcast OVC110 50.9 28.6 42% 29.85 0.0
03 02:15 SW 10 G 17 10.00 Mostly Cloudy BKN110 50.9 28.4 42% 29.86 0.0
03 01:55 SW 13 G 18 10.00 Mostly Cloudy BKN110 50.7 28 42% 29.86 0.0
03 01:35 SW 13 10.00 Partly Cloudy SCT120 50.5 27.9 42% 29.87 0.0
03 01:15 SW 10 10.00 Partly Cloudy SCT090 50.2 27.5 42% 29.87 0.0
03 00:55 SW 12 G 17 10.00 Partly Cloudy SCT100 50.5 27.3 57.9 48.2 41% 29.88 0.0
03 00:35 SW 9 10.00 Overcast OVC100 51.4 27.3 39% 29.88 0.0
03 00:15 SW 12 G 16 10.00 Overcast OVC100 51.8 27.7 39% 29.88 0.0
02 23:55 SW 10 G 16 10.00 Overcast OVC100 51.8 27.5 39% 29.88 0.0
02 23:35 SW 10 10.00 Overcast OVC100 51.8 27.7 39% 29.89 0.0
02 23:15 SW 9 10.00 Overcast OVC100 52 27.9 39% 29.9 0.0
02 22:55 SW 8 10.00 Overcast OVC100 51.8 28.2 40% 29.9 0.0
02 22:15 SW 7 10.00 Mostly Cloudy BKN100 51.1 28.6 42% 29.92 0.0
02 21:55 SW 7 10.00 Mostly Cloudy BKN100 49.6 28.8 45% 47 29.92 0.0
02 21:35 SW 6 10.00 Mostly Cloudy BKN110 49.8 29.3 45% 48 29.92 0.0
02 21:15 SW 6 10.00 Partly Cloudy SCT110 48.2 29.7 49% 46 29.92 0.0
02 20:55 SW 3 10.00 Fair CLR 50.7 28 42% 29.92 0.0
02 20:35 SW 3 10.00 Fair CLR 51.6 28.2 41% 29.92 0.0
02 20:15 SW 5 10.00 Fair CLR 50.9 28.4 42% 29.92 0.0
02 19:55 SW 6 10.00 Fair CLR 53.6 27.7 37% 29.92 0.0
02 19:35 SW 6 10.00 Fair CLR 55 27.3 34% 29.92 0.0
02 19:15 W 9 10.00 Fair CLR 57.2 26.4 31% 29.92 0.0
02 18:55 W 10 G 16 10.00 Fair CLR 58.1 26.6 59.5 54.1 30% 29.92 0.0
02 18:35 W 9 G 17 10.00 Partly Cloudy SCT080 58.3 26.1 29% 29.93 0.0
02 18:15 W 12 10.00 Partly Cloudy SCT080 58.5 26.8 30% 29.94 0.0
02 17:55 W 9 10.00 Partly Cloudy SCT080 58.8 26.2 29% 29.94 0.0
02 17:35 W 13 G 17 10.00 Mostly Cloudy BKN080 59.2 25.9 28% 29.94 0.0
02 17:15 W 10 G 17 10.00 Mostly Cloudy BKN080 59.5 26.2 28% 29.95 0.0
02 16:55 W 9 G 17 10.00 Mostly Cloudy BKN080 57.7 25.7 29% 29.95 0.0
02 16:35 SW 8 G 20 10.00 Mostly Cloudy BKN080 57.2 26.4 31% 29.96 0.0
Date Time (cdt) Wind (mph) Vis. (mi.) Weather Sky Cond. Air Dwpt Max. Min. Relative Humidity Wind Chill (°F) Heat Index (°F) altimeter (in) sea level (mb) 1 hr 3 hr 6 hr
6 hour
Temperature (ºF) Pressure Precipitation (in)